sensor_id;sensor_type;location;lat;lon;timestamp;pressure;altitude;pressure_sealevel;temperature;humidity
9257;BME280;4665;51.368;6.782;2023-05-16T00:01:06;101402.66;;;9.98;100.00
9257;BME280;4665;51.368;6.782;2023-05-16T00:03:33;101392.34;;;9.84;100.00
9257;BME280;4665;51.368;6.782;2023-05-16T00:05:58;101397.69;;;9.84;100.00
9257;BME280;4665;51.368;6.782;2023-05-16T00:08:27;101420.81;;;9.93;100.00
9257;BME280;4665;51.368;6.782;2023-05-16T00:10:52;101407.25;;;9.86;100.00
9257;BME280;4665;51.368;6.782;2023-05-16T00:13:18;101410.56;;;9.79;100.00
9257;BME280;4665;51.368;6.782;2023-05-16T00:15:51;101414.28;;;9.66;100.00
9257;BME280;4665;51.368;6.782;2023-05-16T00:18:18;101404.72;;;9.54;100.00
9257;BME280;4665;51.368;6.782;2023-05-16T00:20:44;101422.41;;;9.65;100.00
9257;BME280;4665;51.368;6.782;2023-05-16T00:23:09;101426.88;;;9.64;100.00
9257;BME280;4665;51.368;6.782;2023-05-16T00:25:35;101430.00;;;9.48;100.00
9257;BME280;4665;51.368;6.782;2023-05-16T00:28:00;101424.13;;;9.45;100.00
9257;BME280;4665;51.368;6.782;2023-05-16T00:30:26;101407.81;;;9.29;100.00
9257;BME280;4665;51.368;6.782;2023-05-16T00:32:54;101424.91;;;9.36;100.00
9257;BME280;4665;51.368;6.782;2023-05-16T00:35:20;101428.22;;;9.28;100.00
9257;BME280;4665;51.368;6.782;2023-05-16T00:37:45;101408.81;;;9.16;100.00
9257;BME280;4665;51.368;6.782;2023-05-16T00:40:11;101411.03;;;9.11;100.00
9257;BME280;4665;51.368;6.782;2023-05-16T00:42:37;101406.00;;;9.08;100.00
9257;BME280;4665;51.368;6.782;2023-05-16T00:45:04;101410.72;;;9.04;100.00
9257;BME280;4665;51.368;6.782;2023-05-16T00:47:29;101424.06;;;9.14;100.00
9257;BME280;4665;51.368;6.782;2023-05-16T00:49:55;101407.59;;;8.99;100.00
9257;BME280;4665;51.368;6.782;2023-05-16T00:52:20;101409.69;;;8.96;100.00
9257;BME280;4665;51.368;6.782;2023-05-16T00:54:46;101417.91;;;8.93;100.00
9257;BME280;4665;51.368;6.782;2023-05-16T00:57:11;101416.22;;;8.92;100.00
9257;BME280;4665;51.368;6.782;2023-05-16T00:59:37;101427.19;;;8.98;100.00
9257;BME280;4665;51.368;6.782;2023-05-16T01:02:02;101422.13;;;8.95;100.00
9257;BME280;4665;51.368;6.782;2023-05-16T01:04:28;101442.88;;;9.01;100.00
9257;BME280;4665;51.368;6.782;2023-05-16T01:06:55;101431.00;;;8.84;100.00
9257;BME280;4665;51.368;6.782;2023-05-16T01:09:21;101426.78;;;8.82;100.00
9257;BME280;4665;51.368;6.782;2023-05-16T01:11:55;101415.56;;;8.78;100.00
9257;BME280;4665;51.368;6.782;2023-05-16T01:19:55;101455.03;;;8.83;100.00
9257;BME280;4665;51.368;6.782;2023-05-16T01:22:46;101455.63;;;8.87;100.00
9257;BME280;4665;51.368;6.782;2023-05-16T01:27:46;101450.72;;;8.71;100.00
9257;BME280;4665;51.368;6.782;2023-05-16T01:30:17;101461.09;;;8.74;100.00
9257;BME280;4665;51.368;6.782;2023-05-16T01:32:43;101464.03;;;8.59;100.00
9257;BME280;4665;51.368;6.782;2023-05-16T01:35:11;101462.72;;;8.54;100.00
9257;BME280;4665;51.368;6.782;2023-05-16T01:37:55;101460.44;;;8.49;100.00
9257;BME280;4665;51.368;6.782;2023-05-16T01:40:39;101464.53;;;8.53;100.00
9257;BME280;4665;51.368;6.782;2023-05-16T01:43:12;101464.69;;;8.40;100.00
9257;BME280;4665;51.368;6.782;2023-05-16T01:45:45;101459.75;;;8.47;100.00
9257;BME280;4665;51.368;6.782;2023-05-16T01:48:21;101468.53;;;8.48;100.00
9257;BME280;4665;51.368;6.782;2023-05-16T01:50:53;101470.38;;;8.47;100.00
9257;BME280;4665;51.368;6.782;2023-05-16T01:53:24;101470.47;;;8.46;100.00
9257;BME280;4665;51.368;6.782;2023-05-16T01:55:51;101487.25;;;8.46;100.00
9257;BME280;4665;51.368;6.782;2023-05-16T01:58:20;101480.47;;;8.53;100.00
9257;BME280;4665;51.368;6.782;2023-05-16T02:00:46;101488.06;;;8.58;100.00
9257;BME280;4665;51.368;6.782;2023-05-16T02:03:12;101488.31;;;8.66;100.00
9257;BME280;4665;51.368;6.782;2023-05-16T02:05:37;101494.72;;;8.52;100.00
9257;BME280;4665;51.368;6.782;2023-05-16T02:08:03;101494.38;;;8.46;100.00
9257;BME280;4665;51.368;6.782;2023-05-16T02:10:29;101492.56;;;8.46;100.00
9257;BME280;4665;51.368;6.782;2023-05-16T02:12:54;101493.03;;;8.51;100.00
9257;BME280;4665;51.368;6.782;2023-05-16T02:15:20;101500.75;;;8.54;100.00
9257;BME280;4665;51.368;6.782;2023-05-16T02:17:45;101502.56;;;8.54;100.00
9257;BME280;4665;51.368;6.782;2023-05-16T02:20:11;101499.56;;;8.47;100.00
9257;BME280;4665;51.368;6.782;2023-05-16T02:22:37;101497.13;;;8.44;100.00
9257;BME280;4665;51.368;6.782;2023-05-16T02:25:12;101491.59;;;8.36;100.00
9257;BME280;4665;51.368;6.782;2023-05-16T02:27:37;101491.09;;;8.31;100.00
9257;BME280;4665;51.368;6.782;2023-05-16T02:30:03;101499.56;;;8.36;100.00
9257;BME280;4665;51.368;6.782;2023-05-16T02:32:30;101497.00;;;8.34;100.00
9257;BME280;4665;51.368;6.782;2023-05-16T02:34:56;101504.97;;;8.34;100.00
9257;BME280;4665;51.368;6.782;2023-05-16T02:37:21;101502.22;;;8.36;100.00
9257;BME280;4665;51.368;6.782;2023-05-16T02:39:46;101508.72;;;8.32;100.00
9257;BME280;4665;51.368;6.782;2023-05-16T02:42:12;101508.59;;;8.33;100.00
9257;BME280;4665;51.368;6.782;2023-05-16T02:44:37;101514.03;;;8.32;100.00
9257;BME280;4665;51.368;6.782;2023-05-16T02:47:02;101514.41;;;8.27;100.00
9257;BME280;4665;51.368;6.782;2023-05-16T02:49:28;101515.34;;;8.26;100.00
9257;BME280;4665;51.368;6.782;2023-05-16T02:51:53;101503.41;;;8.09;100.00
9257;BME280;4665;51.368;6.782;2023-05-16T02:54:19;101507.16;;;8.07;100.00
9257;BME280;4665;51.368;6.782;2023-05-16T02:56:45;101527.66;;;8.16;100.00
9257;BME280;4665;51.368;6.782;2023-05-16T02:59:10;101510.91;;;8.04;100.00
9257;BME280;4665;51.368;6.782;2023-05-16T03:01:36;101539.13;;;8.16;100.00
9257;BME280;4665;51.368;6.782;2023-05-16T03:04:01;101541.78;;;8.16;100.00
9257;BME280;4665;51.368;6.782;2023-05-16T03:06:27;101527.44;;;8.08;100.00
9257;BME280;4665;51.368;6.782;2023-05-16T03:08:52;101517.41;;;8.00;100.00
9257;BME280;4665;51.368;6.782;2023-05-16T03:11:18;101526.09;;;8.02;100.00
9257;BME280;4665;51.368;6.782;2023-05-16T03:13:47;101522.13;;;7.96;100.00
9257;BME280;4665;51.368;6.782;2023-05-16T03:16:13;101526.69;;;7.94;100.00
9257;BME280;4665;51.368;6.782;2023-05-16T03:18:39;101517.53;;;7.98;100.00
9257;BME280;4665;51.368;6.782;2023-05-16T03:21:05;101534.66;;;7.94;100.00
9257;BME280;4665;51.368;6.782;2023-05-16T03:23:30;101536.34;;;7.95;100.00
9257;BME280;4665;51.368;6.782;2023-05-16T03:25:56;101545.50;;;8.02;100.00
9257;BME280;4665;51.368;6.782;2023-05-16T03:28:21;101540.69;;;7.85;100.00
9257;BME280;4665;51.368;6.782;2023-05-16T03:30:47;101527.13;;;7.77;100.00
9257;BME280;4665;51.368;6.782;2023-05-16T03:33:12;101535.09;;;7.77;100.00
9257;BME280;4665;51.368;6.782;2023-05-16T03:35:38;101525.19;;;7.68;100.00
9257;BME280;4665;51.368;6.782;2023-05-16T03:38:04;101526.13;;;7.55;100.00
9257;BME280;4665;51.368;6.782;2023-05-16T03:40:30;101535.78;;;7.56;100.00
9257;BME280;4665;51.368;6.782;2023-05-16T03:42:55;101542.16;;;7.54;100.00
9257;BME280;4665;51.368;6.782;2023-05-16T03:45:21;101542.50;;;7.49;100.00
9257;BME280;4665;51.368;6.782;2023-05-16T03:47:48;101549.50;;;7.50;100.00
9257;BME280;4665;51.368;6.782;2023-05-16T03:50:13;101571.50;;;7.64;100.00
9257;BME280;4665;51.368;6.782;2023-05-16T03:52:38;101581.38;;;7.62;100.00
9257;BME280;4665;51.368;6.782;2023-05-16T03:55:04;101569.41;;;7.56;100.00
9257;BME280;4665;51.368;6.782;2023-05-16T03:57:30;101579.31;;;7.65;100.00
9257;BME280;4665;51.368;6.782;2023-05-16T03:59:56;101569.53;;;7.54;100.00
9257;BME280;4665;51.368;6.782;2023-05-16T04:02:22;101582.94;;;7.64;100.00
9257;BME280;4665;51.368;6.782;2023-05-16T04:04:47;101603.81;;;7.69;100.00
9257;BME280;4665;51.368;6.782;2023-05-16T04:07:12;101604.66;;;7.69;100.00
9257;BME280;4665;51.368;6.782;2023-05-16T04:09:38;101575.56;;;7.56;100.00
9257;BME280;4665;51.368;6.782;2023-05-16T04:12:03;101581.00;;;7.55;100.00
9257;BME280;4665;51.368;6.782;2023-05-16T04:14:29;101582.56;;;7.57;100.00
9257;BME280;4665;51.368;6.782;2023-05-16T04:16:55;101590.03;;;7.52;100.00
9257;BME280;4665;51.368;6.782;2023-05-16T04:19:20;101607.91;;;7.62;100.00
9257;BME280;4665;51.368;6.782;2023-05-16T04:21:45;101597.97;;;7.52;100.00
9257;BME280;4665;51.368;6.782;2023-05-16T04:24:11;101582.41;;;7.48;100.00
9257;BME280;4665;51.368;6.782;2023-05-16T04:26:36;101620.28;;;7.61;100.00
9257;BME280;4665;51.368;6.782;2023-05-16T04:29:02;101594.84;;;7.47;100.00
9257;BME280;4665;51.368;6.782;2023-05-16T04:31:27;101614.63;;;7.54;100.00
9257;BME280;4665;51.368;6.782;2023-05-16T04:33:53;101596.47;;;7.37;100.00
9257;BME280;4665;51.368;6.782;2023-05-16T04:36:18;101615.16;;;7.47;100.00
9257;BME280;4665;51.368;6.782;2023-05-16T04:38:44;101618.31;;;7.52;100.00
9257;BME280;4665;51.368;6.782;2023-05-16T04:41:11;101594.78;;;7.36;100.00
9257;BME280;4665;51.368;6.782;2023-05-16T04:43:37;101610.22;;;7.42;100.00
9257;BME280;4665;51.368;6.782;2023-05-16T04:46:03;101609.13;;;7.45;100.00
9257;BME280;4665;51.368;6.782;2023-05-16T04:48:28;101640.78;;;7.59;100.00
9257;BME280;4665;51.368;6.782;2023-05-16T04:50:54;101622.28;;;7.46;100.00
9257;BME280;4665;51.368;6.782;2023-05-16T04:53:20;101617.97;;;7.45;100.00
9257;BME280;4665;51.368;6.782;2023-05-16T04:55:45;101619.97;;;7.42;100.00
9257;BME280;4665;51.368;6.782;2023-05-16T04:58:11;101646.81;;;7.61;100.00
9257;BME280;4665;51.368;6.782;2023-05-16T05:00:38;101633.28;;;7.53;100.00
9257;BME280;4665;51.368;6.782;2023-05-16T05:03:03;101627.34;;;7.49;100.00
9257;BME280;4665;51.368;6.782;2023-05-16T05:05:28;101637.59;;;7.43;100.00
9257;BME280;4665;51.368;6.782;2023-05-16T05:07:54;101632.06;;;7.46;100.00
9257;BME280;4665;51.368;6.782;2023-05-16T05:10:19;101649.59;;;7.59;100.00
9257;BME280;4665;51.368;6.782;2023-05-16T05:12:45;101645.22;;;7.58;100.00
9257;BME280;4665;51.368;6.782;2023-05-16T05:15:10;101650.31;;;7.62;100.00
9257;BME280;4665;51.368;6.782;2023-05-16T05:17:35;101634.75;;;7.57;100.00
9257;BME280;4665;51.368;6.782;2023-05-16T05:20:02;101635.34;;;7.61;100.00
9257;BME280;4665;51.368;6.782;2023-05-16T05:22:31;101655.06;;;7.69;100.00
9257;BME280;4665;51.368;6.782;2023-05-16T05:24:56;101641.97;;;7.55;100.00
9257;BME280;4665;51.368;6.782;2023-05-16T05:27:21;101656.38;;;7.64;100.00
9257;BME280;4665;51.368;6.782;2023-05-16T05:29:47;101657.94;;;7.66;100.00
9257;BME280;4665;51.368;6.782;2023-05-16T05:32:12;101644.88;;;7.63;100.00
9257;BME280;4665;51.368;6.782;2023-05-16T05:34:38;101637.91;;;7.62;100.00
9257;BME280;4665;51.368;6.782;2023-05-16T05:37:03;101653.59;;;7.65;100.00
9257;BME280;4665;51.368;6.782;2023-05-16T05:39:28;101658.44;;;7.71;100.00
9257;BME280;4665;51.368;6.782;2023-05-16T05:41:54;101667.53;;;7.80;100.00
9257;BME280;4665;51.368;6.782;2023-05-16T05:44:19;101652.91;;;7.74;100.00
9257;BME280;4665;51.368;6.782;2023-05-16T05:46:45;101672.59;;;7.83;100.00
9257;BME280;4665;51.368;6.782;2023-05-16T05:49:11;101663.91;;;7.81;100.00
9257;BME280;4665;51.368;6.782;2023-05-16T05:51:37;101671.91;;;7.92;100.00
9257;BME280;4665;51.368;6.782;2023-05-16T05:54:02;101667.38;;;8.06;100.00
9257;BME280;4665;51.368;6.782;2023-05-16T05:56:28;101669.31;;;8.15;100.00
9257;BME280;4665;51.368;6.782;2023-05-16T05:58:53;101691.22;;;8.41;100.00
9257;BME280;4665;51.368;6.782;2023-05-16T06:01:19;101690.16;;;8.55;100.00
9257;BME280;4665;51.368;6.782;2023-05-16T06:03:48;101682.09;;;8.56;100.00
9257;BME280;4665;51.368;6.782;2023-05-16T06:06:14;101682.31;;;8.64;100.00
9257;BME280;4665;51.368;6.782;2023-05-16T06:08:40;101685.34;;;8.71;100.00
9257;BME280;4665;51.368;6.782;2023-05-16T06:11:05;101680.97;;;8.70;100.00
9257;BME280;4665;51.368;6.782;2023-05-16T06:13:30;101669.88;;;8.76;100.00
9257;BME280;4665;51.368;6.782;2023-05-16T06:15:56;101678.59;;;8.78;100.00
9257;BME280;4665;51.368;6.782;2023-05-16T06:18:21;101695.25;;;8.92;100.00
9257;BME280;4665;51.368;6.782;2023-05-16T06:20:46;101674.72;;;8.94;100.00
9257;BME280;4665;51.368;6.782;2023-05-16T06:23:12;101677.13;;;8.97;100.00
9257;BME280;4665;51.368;6.782;2023-05-16T06:25:37;101710.78;;;9.30;100.00
9257;BME280;4665;51.368;6.782;2023-05-16T06:28:03;101685.56;;;9.13;100.00
9257;BME280;4665;51.368;6.782;2023-05-16T06:30:28;101716.72;;;9.34;100.00
9257;BME280;4665;51.368;6.782;2023-05-16T06:32:53;101711.41;;;9.34;100.00
9257;BME280;4665;51.368;6.782;2023-05-16T06:35:19;101698.69;;;9.37;100.00
9257;BME280;4665;51.368;6.782;2023-05-16T06:37:44;101715.94;;;9.54;100.00
9257;BME280;4665;51.368;6.782;2023-05-16T06:40:10;101687.28;;;9.46;100.00
9257;BME280;4665;51.368;6.782;2023-05-16T06:42:36;101714.81;;;9.68;100.00
9257;BME280;4665;51.368;6.782;2023-05-16T06:45:01;101714.66;;;9.69;100.00
9257;BME280;4665;51.368;6.782;2023-05-16T06:47:27;101701.16;;;9.61;100.00
9257;BME280;4665;51.368;6.782;2023-05-16T06:49:53;101700.91;;;9.64;100.00
9257;BME280;4665;51.368;6.782;2023-05-16T06:52:18;101679.56;;;9.43;100.00
9257;BME280;4665;51.368;6.782;2023-05-16T06:54:44;101693.22;;;9.50;100.00
9257;BME280;4665;51.368;6.782;2023-05-16T06:57:09;101715.41;;;9.72;100.00
9257;BME280;4665;51.368;6.782;2023-05-16T06:59:35;101719.53;;;9.64;100.00
9257;BME280;4665;51.368;6.782;2023-05-16T07:02:00;101684.97;;;9.53;100.00
9257;BME280;4665;51.368;6.782;2023-05-16T07:04:26;101702.63;;;9.65;100.00
9257;BME280;4665;51.368;6.782;2023-05-16T07:06:52;101702.31;;;9.47;100.00
9257;BME280;4665;51.368;6.782;2023-05-16T07:09:18;101717.06;;;9.40;100.00
9257;BME280;4665;51.368;6.782;2023-05-16T07:11:43;101707.78;;;9.23;100.00
9257;BME280;4665;51.368;6.782;2023-05-16T07:14:09;101707.19;;;9.20;100.00
9257;BME280;4665;51.368;6.782;2023-05-16T07:16:34;101704.41;;;9.21;100.00
9257;BME280;4665;51.368;6.782;2023-05-16T07:19:00;101691.50;;;9.17;100.00
9257;BME280;4665;51.368;6.782;2023-05-16T07:21:25;101696.44;;;9.21;100.00
9257;BME280;4665;51.368;6.782;2023-05-16T07:23:51;101698.47;;;9.18;100.00
9257;BME280;4665;51.368;6.782;2023-05-16T07:26:16;101722.75;;;9.36;100.00
9257;BME280;4665;51.368;6.782;2023-05-16T07:28:42;101717.06;;;9.40;100.00
9257;BME280;4665;51.368;6.782;2023-05-16T07:31:08;101728.25;;;9.55;100.00
9257;BME280;4665;51.368;6.782;2023-05-16T07:33:33;101694.91;;;9.51;100.00
9257;BME280;4665;51.368;6.782;2023-05-16T07:35:58;101716.88;;;9.64;100.00
9257;BME280;4665;51.368;6.782;2023-05-16T07:38:25;101700.28;;;9.72;100.00
9257;BME280;4665;51.368;6.782;2023-05-16T07:40:50;101716.66;;;9.88;100.00
9257;BME280;4665;51.368;6.782;2023-05-16T07:43:16;101717.94;;;10.05;100.00
9257;BME280;4665;51.368;6.782;2023-05-16T07:45:41;101702.91;;;10.04;100.00
9257;BME280;4665;51.368;6.782;2023-05-16T07:48:07;101715.06;;;9.97;100.00
9257;BME280;4665;51.368;6.782;2023-05-16T07:50:32;101694.13;;;9.93;100.00
9257;BME280;4665;51.368;6.782;2023-05-16T07:52:57;101718.38;;;10.10;100.00
9257;BME280;4665;51.368;6.782;2023-05-16T07:55:23;101712.94;;;9.91;100.00
9257;BME280;4665;51.368;6.782;2023-05-16T07:57:49;101718.03;;;9.83;100.00
9257;BME280;4665;51.368;6.782;2023-05-16T08:00:15;101706.22;;;9.64;100.00
9257;BME280;4665;51.368;6.782;2023-05-16T08:02:41;101713.28;;;9.54;100.00
9257;BME280;4665;51.368;6.782;2023-05-16T08:05:07;101700.44;;;9.59;100.00
9257;BME280;4665;51.368;6.782;2023-05-16T08:07:33;101735.06;;;9.92;100.00
9257;BME280;4665;51.368;6.782;2023-05-16T08:09:58;101732.72;;;9.98;100.00
9257;BME280;4665;51.368;6.782;2023-05-16T08:12:23;101724.78;;;9.87;100.00
9257;BME280;4665;51.368;6.782;2023-05-16T08:14:49;101729.66;;;9.82;100.00
9257;BME280;4665;51.368;6.782;2023-05-16T08:17:14;101722.38;;;9.84;100.00
9257;BME280;4665;51.368;6.782;2023-05-16T08:19:39;101739.53;;;9.91;100.00
9257;BME280;4665;51.368;6.782;2023-05-16T08:22:06;101733.94;;;9.94;100.00
9257;BME280;4665;51.368;6.782;2023-05-16T08:24:33;101723.03;;;9.97;100.00
9257;BME280;4665;51.368;6.782;2023-05-16T08:26:59;101727.28;;;10.21;100.00
9257;BME280;4665;51.368;6.782;2023-05-16T08:29:24;101714.22;;;10.18;100.00
9257;BME280;4665;51.368;6.782;2023-05-16T08:31:50;101714.22;;;10.18;100.00
9257;BME280;4665;51.368;6.782;2023-05-16T08:34:16;101744.69;;;10.36;100.00
9257;BME280;4665;51.368;6.782;2023-05-16T08:36:41;101713.31;;;10.40;100.00
9257;BME280;4665;51.368;6.782;2023-05-16T08:39:07;101734.34;;;10.64;100.00
9257;BME280;4665;51.368;6.782;2023-05-16T08:41:34;101738.59;;;10.76;100.00
9257;BME280;4665;51.368;6.782;2023-05-16T08:44:00;101718.13;;;10.56;100.00
9257;BME280;4665;51.368;6.782;2023-05-16T08:46:27;101716.88;;;10.50;100.00
9257;BME280;4665;51.368;6.782;2023-05-16T08:48:58;101736.06;;;10.53;100.00
9257;BME280;4665;51.368;6.782;2023-05-16T08:51:24;101729.13;;;10.62;100.00
9257;BME280;4665;51.368;6.782;2023-05-16T08:54:02;101741.47;;;10.84;100.00
9257;BME280;4665;51.368;6.782;2023-05-16T08:56:28;101738.50;;;10.87;100.00
9257;BME280;4665;51.368;6.782;2023-05-16T08:58:56;101724.91;;;10.90;100.00
9257;BME280;4665;51.368;6.782;2023-05-16T09:01:22;101746.59;;;11.07;100.00
9257;BME280;4665;51.368;6.782;2023-05-16T09:03:51;101733.97;;;11.09;100.00
9257;BME280;4665;51.368;6.782;2023-05-16T09:06:17;101724.19;;;10.88;100.00
9257;BME280;4665;51.368;6.782;2023-05-16T09:08:43;101739.03;;;10.81;100.00
9257;BME280;4665;51.368;6.782;2023-05-16T09:11:08;101733.09;;;10.68;100.00
9257;BME280;4665;51.368;6.782;2023-05-16T09:13:34;101741.81;;;10.70;100.00
9257;BME280;4665;51.368;6.782;2023-05-16T09:18:34;101740.69;;;11.03;100.00
9257;BME280;4665;51.368;6.782;2023-05-16T09:21:00;101721.31;;;11.01;100.00
9257;BME280;4665;51.368;6.782;2023-05-16T09:23:25;101733.53;;;11.04;100.00
9257;BME280;4665;51.368;6.782;2023-05-16T09:25:54;101731.47;;;11.17;100.00
9257;BME280;4665;51.368;6.782;2023-05-16T09:28:19;101727.00;;;11.27;100.00
9257;BME280;4665;51.368;6.782;2023-05-16T09:30:45;101736.47;;;11.51;100.00
9257;BME280;4665;51.368;6.782;2023-05-16T09:33:11;101727.31;;;11.44;100.00
9257;BME280;4665;51.368;6.782;2023-05-16T09:35:37;101737.34;;;11.51;100.00
9257;BME280;4665;51.368;6.782;2023-05-16T09:38:03;101726.97;;;11.58;100.00
9257;BME280;4665;51.368;6.782;2023-05-16T09:40:28;101706.16;;;11.62;100.00
9257;BME280;4665;51.368;6.782;2023-05-16T09:45:27;101733.97;;;11.59;100.00
9257;BME280;4665;51.368;6.782;2023-05-16T09:47:52;101731.69;;;11.45;100.00
9257;BME280;4665;51.368;6.782;2023-05-16T09:50:18;101709.63;;;11.33;100.00
9257;BME280;4665;51.368;6.782;2023-05-16T09:52:43;101730.28;;;11.41;100.00
9257;BME280;4665;51.368;6.782;2023-05-16T09:55:09;101725.53;;;11.54;100.00
9257;BME280;4665;51.368;6.782;2023-05-16T09:57:38;101728.09;;;11.65;100.00
9257;BME280;4665;51.368;6.782;2023-05-16T10:00:09;101727.47;;;11.42;100.00
9257;BME280;4665;51.368;6.782;2023-05-16T10:02:36;101730.56;;;11.37;100.00
9257;BME280;4665;51.368;6.782;2023-05-16T10:05:02;101731.28;;;11.40;100.00
9257;BME280;4665;51.368;6.782;2023-05-16T10:07:30;101730.38;;;11.29;100.00
9257;BME280;4665;51.368;6.782;2023-05-16T10:09:56;101717.88;;;11.20;100.00
9257;BME280;4665;51.368;6.782;2023-05-16T10:12:29;101743.09;;;11.56;100.00
9257;BME280;4665;51.368;6.782;2023-05-16T10:14:56;101734.56;;;11.72;100.00
9257;BME280;4665;51.368;6.782;2023-05-16T10:17:22;101736.41;;;11.82;100.00
9257;BME280;4665;51.368;6.782;2023-05-16T10:19:49;101733.72;;;11.82;100.00
9257;BME280;4665;51.368;6.782;2023-05-16T10:22:15;101738.97;;;11.93;100.00
9257;BME280;4665;51.368;6.782;2023-05-16T10:24:54;101741.56;;;11.83;100.00
9257;BME280;4665;51.368;6.782;2023-05-16T10:27:21;101732.84;;;11.81;100.00
9257;BME280;4665;51.368;6.782;2023-05-16T10:29:48;101744.41;;;11.82;100.00
9257;BME280;4665;51.368;6.782;2023-05-16T10:32:14;101727.50;;;11.62;100.00
9257;BME280;4665;51.368;6.782;2023-05-16T10:34:41;101731.59;;;11.56;100.00
9257;BME280;4665;51.368;6.782;2023-05-16T10:37:07;101724.94;;;11.41;100.00
9257;BME280;4665;51.368;6.782;2023-05-16T10:39:33;101723.41;;;11.38;100.00
9257;BME280;4665;51.368;6.782;2023-05-16T10:42:00;101733.47;;;11.34;100.00
9257;BME280;4665;51.368;6.782;2023-05-16T10:44:25;101722.50;;;11.28;100.00
9257;BME280;4665;51.368;6.782;2023-05-16T10:46:51;101722.94;;;11.23;100.00
9257;BME280;4665;51.368;6.782;2023-05-16T10:49:24;101733.47;;;11.25;100.00
9257;BME280;4665;51.368;6.782;2023-05-16T10:52:10;101737.44;;;11.30;100.00
9257;BME280;4665;51.368;6.782;2023-05-16T10:54:36;101734.22;;;11.46;100.00
9257;BME280;4665;51.368;6.782;2023-05-16T10:57:17;101734.69;;;11.61;100.00
9257;BME280;4665;51.368;6.782;2023-05-16T10:59:46;101719.66;;;11.79;100.00
9257;BME280;4665;51.368;6.782;2023-05-16T11:04:55;101730.09;;;12.12;100.00
9257;BME280;4665;51.368;6.782;2023-05-16T11:07:22;101713.38;;;12.10;100.00
9257;BME280;4665;51.368;6.782;2023-05-16T11:10:06;101715.47;;;12.26;100.00
9257;BME280;4665;51.368;6.782;2023-05-16T11:12:43;101707.00;;;12.40;100.00
9257;BME280;4665;51.368;6.782;2023-05-16T11:15:18;101714.59;;;12.45;100.00
9257;BME280;4665;51.368;6.782;2023-05-16T11:17:44;101713.13;;;12.60;100.00
9257;BME280;4665;51.368;6.782;2023-05-16T11:20:24;101721.84;;;12.72;100.00
9257;BME280;4665;51.368;6.782;2023-05-16T11:22:50;101716.09;;;12.57;100.00
9257;BME280;4665;51.368;6.782;2023-05-16T11:25:34;101728.16;;;12.71;100.00
9257;BME280;4665;51.368;6.782;2023-05-16T11:28:03;101721.13;;;12.70;100.00
9257;BME280;4665;51.368;6.782;2023-05-16T11:30:28;101732.09;;;12.67;100.00
9257;BME280;4665;51.368;6.782;2023-05-16T11:32:54;101708.09;;;12.47;100.00
9257;BME280;4665;51.368;6.782;2023-05-16T11:35:19;101700.94;;;12.38;100.00
9257;BME280;4665;51.368;6.782;2023-05-16T11:37:46;101707.44;;;12.26;100.00
9257;BME280;4665;51.368;6.782;2023-05-16T11:40:12;101708.16;;;12.18;100.00
9257;BME280;4665;51.368;6.782;2023-05-16T11:45:10;101758.06;;;12.17;100.00
9257;BME280;4665;51.368;6.782;2023-05-16T11:47:39;101729.09;;;11.84;100.00
9257;BME280;4665;51.368;6.782;2023-05-16T11:50:09;101751.09;;;11.47;100.00
9257;BME280;4665;51.368;6.782;2023-05-16T11:52:36;101762.78;;;11.15;100.00
9257;BME280;4665;51.368;6.782;2023-05-16T11:55:03;101766.38;;;11.04;100.00
9257;BME280;4665;51.368;6.782;2023-05-16T11:57:30;101741.69;;;10.81;100.00
9257;BME280;4665;51.368;6.782;2023-05-16T12:00:02;101739.66;;;10.94;100.00
9257;BME280;4665;51.368;6.782;2023-05-16T12:02:28;101743.00;;;11.18;100.00
9257;BME280;4665;51.368;6.782;2023-05-16T12:04:54;101748.78;;;11.32;100.00
9257;BME280;4665;51.368;6.782;2023-05-16T12:07:20;101764.31;;;11.58;100.00
9257;BME280;4665;51.368;6.782;2023-05-16T12:09:52;101741.56;;;11.73;100.00
9257;BME280;4665;51.368;6.782;2023-05-16T12:12:19;101719.38;;;11.83;100.00
9257;BME280;4665;51.368;6.782;2023-05-16T12:14:45;101735.09;;;11.86;100.00
9257;BME280;4665;51.368;6.782;2023-05-16T12:17:11;101750.47;;;12.13;100.00
9257;BME280;4665;51.368;6.782;2023-05-16T12:19:37;101727.00;;;12.16;100.00
9257;BME280;4665;51.368;6.782;2023-05-16T12:22:02;101711.81;;;12.27;100.00
9257;BME280;4665;51.368;6.782;2023-05-16T12:24:29;101705.28;;;12.39;100.00
9257;BME280;4665;51.368;6.782;2023-05-16T12:26:55;101703.56;;;12.57;100.00
9257;BME280;4665;51.368;6.782;2023-05-16T12:29:21;101717.06;;;12.66;100.00
9257;BME280;4665;51.368;6.782;2023-05-16T12:31:51;101700.97;;;12.75;100.00
9257;BME280;4665;51.368;6.782;2023-05-16T12:34:18;101716.66;;;12.98;100.00
9257;BME280;4665;51.368;6.782;2023-05-16T12:36:50;101709.88;;;13.03;100.00
9257;BME280;4665;51.368;6.782;2023-05-16T12:39:15;101690.88;;;13.07;100.00
9257;BME280;4665;51.368;6.782;2023-05-16T12:41:42;101694.72;;;13.22;73.13
9257;BME280;4665;51.368;6.782;2023-05-16T12:44:15;101716.03;;;13.59;57.72
9257;BME280;4665;51.368;6.782;2023-05-16T12:46:48;101719.28;;;13.63;63.63
9257;BME280;4665;51.368;6.782;2023-05-16T12:49:14;101708.94;;;13.68;60.12
9257;BME280;4665;51.368;6.782;2023-05-16T12:51:47;101721.41;;;13.59;60.68
9257;BME280;4665;51.368;6.782;2023-05-16T12:54:13;101707.31;;;13.57;64.72
9257;BME280;4665;51.368;6.782;2023-05-16T12:56:40;101715.69;;;13.72;61.36
9257;BME280;4665;51.368;6.782;2023-05-16T12:59:06;101725.50;;;13.81;61.90
9257;BME280;4665;51.368;6.782;2023-05-16T13:01:33;101711.06;;;13.64;60.67
9257;BME280;4665;51.368;6.782;2023-05-16T13:04:00;101723.88;;;13.71;62.10
9257;BME280;4665;51.368;6.782;2023-05-16T13:06:25;101724.84;;;13.87;61.31
9257;BME280;4665;51.368;6.782;2023-05-16T13:08:51;101707.94;;;13.87;61.46
9257;BME280;4665;51.368;6.782;2023-05-16T13:11:16;101696.72;;;13.83;59.64
9257;BME280;4665;51.368;6.782;2023-05-16T13:13:43;101728.22;;;14.07;65.34
9257;BME280;4665;51.368;6.782;2023-05-16T13:16:08;101731.28;;;14.13;60.49
9257;BME280;4665;51.368;6.782;2023-05-16T13:18:34;101706.19;;;13.96;66.74
9257;BME280;4665;51.368;6.782;2023-05-16T13:21:00;101728.81;;;14.19;64.39
9257;BME280;4665;51.368;6.782;2023-05-16T13:23:26;101703.78;;;14.10;60.52